createdAt,value
2023-03-30T00:03:55.218Z,14.63
2023-03-30T00:08:58.561Z,14.44
2023-03-30T00:14:01.142Z,14.38
2023-03-30T00:19:02.674Z,14.27
2023-03-30T00:24:04.324Z,14.16
2023-03-30T00:29:05.837Z,13.98
2023-03-30T00:34:07.360Z,13.76
2023-03-30T00:39:09.116Z,13.67
2023-03-30T00:44:48.497Z,13.66
2023-03-30T00:49:50.553Z,13.45
2023-03-30T00:54:54.180Z,13.33
2023-03-30T00:59:56.921Z,13.28
2023-03-30T01:04:58.487Z,13.23
2023-03-30T01:10:01.153Z,13.21
2023-03-30T01:15:02.771Z,13.06
2023-03-30T01:20:33.021Z,12.92
2023-03-30T01:25:53.061Z,12.90
2023-03-30T01:31:18.841Z,12.81
2023-03-30T01:36:48.545Z,12.71
2023-03-30T01:42:03.887Z,12.76
2023-03-30T01:47:16.351Z,12.77
2023-03-30T01:52:24.454Z,12.72
2023-03-30T01:57:34.011Z,12.63
2023-03-30T02:02:36.239Z,12.78
2023-03-30T02:07:40.166Z,13.13
2023-03-30T02:12:42.447Z,12.91
2023-03-30T02:17:46.041Z,12.67
2023-03-30T02:22:48.268Z,12.66
2023-03-30T02:27:50.304Z,12.75
2023-03-30T02:32:56.948Z,12.84
2023-03-30T02:38:41.742Z,12.88
2023-03-30T02:43:59.591Z,13.03
2023-03-30T02:49:16.727Z,13.14
2023-03-30T02:54:36.377Z,13.15
2023-03-30T03:00:08.826Z,12.93
2023-03-30T03:05:12.836Z,12.90
2023-03-30T03:10:36.285Z,12.99
2023-03-30T03:15:38.826Z,12.90
2023-03-30T03:20:43.231Z,12.79
2023-03-30T03:25:45.585Z,12.74
2023-03-30T03:30:49.807Z,12.75
2023-03-30T03:35:54.571Z,12.74
2023-03-30T03:40:59.177Z,12.77
2023-03-30T03:46:01.663Z,12.86
2023-03-30T03:51:03.627Z,12.91
2023-03-30T03:56:08.460Z,12.91
2023-03-30T04:01:10.468Z,12.92
2023-03-30T04:06:14.988Z,12.87
2023-03-30T04:11:17.770Z,12.58
2023-03-30T04:16:29.347Z,12.24
2023-03-30T04:21:55.667Z,11.96
2023-03-30T04:27:17.582Z,11.87
2023-03-30T04:32:47.172Z,11.81
2023-03-30T04:38:07.829Z,11.82
2023-03-30T04:43:29.948Z,11.85
2023-03-30T04:48:43.204Z,11.83
2023-03-30T04:54:21.152Z,11.71
2023-03-30T05:00:01.049Z,11.69
2023-03-30T05:05:22.556Z,11.68
2023-03-30T05:10:42.319Z,11.67
2023-03-30T05:16:03.070Z,11.63
2023-03-30T05:21:24.229Z,11.72
2023-03-30T05:26:48.660Z,11.68
2023-03-30T05:32:03.185Z,11.36
2023-03-30T05:37:20.612Z,11.25
2023-03-30T05:42:40.994Z,11.30
2023-03-30T05:47:56.167Z,11.35
2023-03-30T05:53:11.310Z,11.37
2023-03-30T05:58:18.878Z,11.20
2023-03-30T06:03:39.157Z,11.21
2023-03-30T06:08:44.945Z,11.21
2023-03-30T06:13:51.933Z,11.15
2023-03-30T06:18:53.769Z,11.17
2023-03-30T06:23:56.755Z,11.20
2023-03-30T06:29:02.433Z,11.21
2023-03-30T06:34:04.549Z,11.22
2023-03-30T06:39:06.736Z,11.22
2023-03-30T06:44:14.870Z,11.21
2023-03-30T06:49:17.192Z,11.19
2023-03-30T06:54:20.380Z,11.09
2023-03-30T06:59:28.944Z,11.05
2023-03-30T07:04:50.253Z,10.99
2023-03-30T07:10:14.727Z,10.99
2023-03-30T07:15:16.774Z,11.01
2023-03-30T07:20:20.428Z,11.02
2023-03-30T07:25:35.655Z,10.96
2023-03-30T07:30:45.678Z,11.01
2023-03-30T07:35:49.919Z,11.13
2023-03-30T07:40:56.662Z,11.17
2023-03-30T07:45:59.486Z,11.02
2023-03-30T07:51:11.566Z,10.99
2023-03-30T07:56:21.136Z,10.95
2023-03-30T08:01:25.579Z,10.96
2023-03-30T08:06:45.728Z,11.01
2023-03-30T08:11:47.503Z,11.19
2023-03-30T08:16:49.571Z,11.36
2023-03-30T08:21:51.235Z,11.54
2023-03-30T08:26:52.791Z,11.91
2023-03-30T08:31:54.550Z,12.22
2023-03-30T08:36:58.114Z,12.43
2023-03-30T08:42:12.574Z,12.69
2023-03-30T08:47:29.675Z,13.21
2023-03-30T08:52:32.977Z,13.95
2023-03-30T08:57:39.842Z,14.51
2023-03-30T09:02:48.131Z,14.76
2023-03-30T09:07:55.677Z,14.66
2023-03-30T09:13:01.478Z,14.28
2023-03-30T09:18:34.821Z,13.75
2023-03-30T09:23:40.035Z,13.03
2023-03-30T09:28:54.710Z,12.79
2023-03-30T09:34:17.877Z,12.61
2023-03-30T09:39:22.011Z,12.45
2023-03-30T09:45:14.907Z,12.37
2023-03-30T09:50:24.698Z,12.18
2023-03-30T09:55:31.249Z,12.09
2023-03-30T10:00:34.321Z,12.39
2023-03-30T10:05:38.532Z,12.97
2023-03-30T10:10:41.137Z,13.15
2023-03-30T10:15:51.296Z,13.23
2023-03-30T10:21:30.864Z,13.42
2023-03-30T10:26:34.627Z,13.71
2023-03-30T10:31:39.476Z,14.11
2023-03-30T10:36:41.119Z,14.41
2023-03-30T10:41:43.138Z,14.63
2023-03-30T10:46:45.511Z,14.84
2023-03-30T10:51:59.195Z,15.08
2023-03-30T10:57:13.856Z,15.81
2023-03-30T11:02:41.677Z,16.19
2023-03-30T11:08:04.014Z,16.30
2023-03-30T11:13:14.115Z,16.24
2023-03-30T11:18:42.682Z,16.09
2023-03-30T11:23:54.749Z,16.41
2023-03-30T11:29:21.724Z,16.82
2023-03-30T11:34:31.165Z,17.37
2023-03-30T11:39:41.458Z,17.69
2023-03-30T11:44:43.648Z,17.63
2023-03-30T11:49:53.468Z,17.32
2023-03-30T11:55:13.802Z,17.01
2023-03-30T12:00:46.092Z,16.70
2023-03-30T12:06:04.263Z,16.92
2023-03-30T12:11:16.383Z,17.27
2023-03-30T12:16:26.916Z,17.38
2023-03-30T12:21:53.520Z,17.88
2023-03-30T12:27:05.035Z,18.35
2023-03-30T12:32:20.000Z,18.00
2023-03-30T12:37:28.603Z,17.49
2023-03-30T12:42:36.747Z,17.06
2023-03-30T12:47:42.311Z,16.68
2023-03-30T12:53:04.064Z,15.98
2023-03-30T12:58:43.610Z,14.12
2023-03-30T13:03:52.770Z,13.20
2023-03-30T13:09:02.046Z,12.56
2023-03-30T13:14:27.170Z,12.00
2023-03-30T13:19:34.026Z,11.55
2023-03-30T13:25:00.659Z,11.46
2023-03-30T13:30:17.007Z,11.42
2023-03-30T13:35:37.025Z,11.57
2023-03-30T13:40:54.590Z,11.56
2023-03-30T13:46:27.078Z,11.33
2023-03-30T13:51:30.716Z,11.40
2023-03-30T13:56:38.062Z,11.32
2023-03-30T14:01:40.365Z,11.22
2023-03-30T14:06:49.592Z,11.49
2023-03-30T14:11:58.377Z,11.75
2023-03-30T14:17:02.388Z,11.76
2023-03-30T14:22:21.035Z,11.85
2023-03-30T14:27:22.743Z,12.24
2023-03-30T14:32:26.949Z,12.77
2023-03-30T14:37:30.689Z,13.12
2023-03-30T14:42:39.385Z,13.44
2023-03-30T14:47:41.046Z,13.47
2023-03-30T14:52:46.710Z,13.69
2023-03-30T14:57:49.263Z,14.01
2023-03-30T15:02:59.611Z,14.83
2023-03-30T15:08:03.184Z,15.72
2023-03-30T15:13:07.595Z,15.78
2023-03-30T15:18:20.243Z,15.70
2023-03-30T15:23:24.552Z,15.26
2023-03-30T15:28:30.722Z,14.87
2023-03-30T15:33:36.475Z,14.63
2023-03-30T15:38:54.662Z,14.44
2023-03-30T15:44:10.860Z,14.24
2023-03-30T15:49:16.270Z,14.03
2023-03-30T15:54:36.243Z,14.11
2023-03-30T15:59:41.764Z,14.11
2023-03-30T16:04:43.664Z,14.03
2023-03-30T16:09:45.757Z,14.12
2023-03-30T16:14:48.644Z,14.04
2023-03-30T16:19:50.339Z,13.94
2023-03-30T16:24:53.265Z,13.71
2023-03-30T16:29:54.808Z,13.51
2023-03-30T16:34:56.506Z,13.59
2023-03-30T16:39:58.117Z,13.47
2023-03-30T16:44:59.701Z,13.31
2023-03-30T16:50:01.223Z,13.34
2023-03-30T16:55:02.750Z,13.38
2023-03-30T17:00:16.075Z,13.36
2023-03-30T17:05:17.910Z,13.38
2023-03-30T17:10:28.963Z,13.37
2023-03-30T17:15:30.742Z,12.50
2023-03-30T17:20:41.611Z,11.73
2023-03-30T17:25:47.503Z,11.51
2023-03-30T17:30:52.909Z,11.20
2023-03-30T17:36:00.814Z,11.01
2023-03-30T17:41:02.773Z,10.82
2023-03-30T17:46:05.598Z,10.71
2023-03-30T17:51:07.739Z,10.75
2023-03-30T17:56:13.129Z,10.76
2023-03-30T18:01:16.701Z,10.71
2023-03-30T18:06:18.273Z,10.78
2023-03-30T18:11:19.853Z,10.82
2023-03-30T18:16:24.338Z,10.87
2023-03-30T18:21:25.912Z,10.85
2023-03-30T18:26:27.519Z,10.85
2023-03-30T18:31:29.098Z,10.82
2023-03-30T18:36:30.715Z,10.78
2023-03-30T18:41:32.229Z,10.74
2023-03-30T18:46:33.895Z,10.65
2023-03-30T18:51:35.533Z,10.52
2023-03-30T18:56:37.857Z,10.40
2023-03-30T19:01:40.216Z,10.40
2023-03-30T19:06:44.348Z,10.63
2023-03-30T19:11:45.975Z,10.72
2023-03-30T19:16:47.546Z,10.81
2023-03-30T19:21:49.183Z,10.91
2023-03-30T19:26:50.795Z,11.03
2023-03-30T19:31:53.842Z,11.10
2023-03-30T19:36:55.522Z,10.96
2023-03-30T19:41:57.187Z,10.85
2023-03-30T19:46:58.726Z,10.75
2023-03-30T19:52:00.274Z,10.75
2023-03-30T19:57:02.209Z,10.77
2023-03-30T20:02:03.891Z,10.86
2023-03-30T20:07:05.519Z,10.91
2023-03-30T20:12:07.747Z,10.84
2023-03-30T20:17:11.263Z,10.59
2023-03-30T20:22:12.865Z,10.34
2023-03-30T20:27:17.087Z,10.04
2023-03-30T20:32:18.737Z,9.79
2023-03-30T20:37:20.328Z,9.57
2023-03-30T20:42:26.364Z,9.49
2023-03-30T20:47:30.463Z,9.53
2023-03-30T20:52:33.565Z,9.67
2023-03-30T20:57:35.380Z,9.86
2023-03-30T21:02:36.985Z,10.16
2023-03-30T21:07:42.209Z,10.45
2023-03-30T21:12:43.801Z,10.69
2023-03-30T21:17:45.512Z,10.90
2023-03-30T21:22:47.046Z,10.99
2023-03-30T21:27:48.621Z,11.01
2023-03-30T21:32:50.193Z,11.08
2023-03-30T21:37:51.801Z,11.13
2023-03-30T21:42:53.351Z,11.12
2023-03-30T21:47:54.896Z,11.14
2023-03-30T21:52:58.148Z,11.05
2023-03-30T21:57:59.677Z,11.11
2023-03-30T22:03:01.303Z,11.17
2023-03-30T22:08:02.872Z,11.31
2023-03-30T22:13:04.918Z,11.40
2023-03-30T22:18:07.023Z,11.36
2023-03-30T22:23:08.642Z,11.30
2023-03-30T22:28:11.990Z,11.23
2023-03-30T22:33:14.410Z,11.14
2023-03-30T22:38:16.550Z,11.10
2023-03-30T22:43:18.163Z,11.13
2023-03-30T22:48:19.712Z,11.17
2023-03-30T22:53:21.231Z,11.29
2023-03-30T22:58:22.764Z,11.39
2023-03-30T23:03:24.355Z,11.49
2023-03-30T23:08:25.879Z,11.52
2023-03-30T23:13:27.421Z,11.34
2023-03-30T23:18:29.047Z,11.09
2023-03-30T23:23:30.568Z,11.08
2023-03-30T23:28:32.092Z,11.22
2023-03-30T23:33:33.676Z,11.34
2023-03-30T23:38:37.603Z,11.34
2023-03-30T23:43:39.326Z,11.17
2023-03-30T23:48:41.995Z,11.07
2023-03-30T23:53:43.662Z,11.10
2023-03-30T23:58:45.401Z,11.10
